sensor_id;sensor_type;location;lat;lon;timestamp;pressure;altitude;pressure_sealevel;temperature
64904;BMP280;51401;48.882;12.598;2024-03-02T00:00:33;64157.97;;;-137.53
64904;BMP280;51401;48.882;12.598;2024-03-02T00:02:58;64159.94;;;-137.53
64904;BMP280;51401;48.882;12.598;2024-03-02T00:05:24;64159.94;;;-137.53
64904;BMP280;51401;48.882;12.598;2024-03-02T00:07:54;64159.94;;;-137.53
64904;BMP280;51401;48.882;12.598;2024-03-02T00:10:22;64161.94;;;-137.53
64904;BMP280;51401;48.882;12.598;2024-03-02T00:12:54;64157.97;;;-137.53
64904;BMP280;51401;48.882;12.598;2024-03-02T00:15:54;64155.97;;;-137.53
64904;BMP280;51401;48.882;12.598;2024-03-02T00:18:25;64159.94;;;-137.53
64904;BMP280;51401;48.882;12.598;2024-03-02T00:20:54;64155.97;;;-137.53
64904;BMP280;51401;48.882;12.598;2024-03-02T00:23:21;64157.97;;;-137.53
64904;BMP280;51401;48.882;12.598;2024-03-02T00:25:48;64159.94;;;-137.53
64904;BMP280;51401;48.882;12.598;2024-03-02T00:28:20;64157.97;;;-137.53
64904;BMP280;51401;48.882;12.598;2024-03-02T00:33:19;64157.97;;;-137.53
64904;BMP280;51401;48.882;12.598;2024-03-02T00:35:48;64161.94;;;-137.53
64904;BMP280;51401;48.882;12.598;2024-03-02T00:38:14;64161.94;;;-137.53
64904;BMP280;51401;48.882;12.598;2024-03-02T00:40:43;64159.94;;;-137.53
64904;BMP280;51401;48.882;12.598;2024-03-02T00:45:49;64159.94;;;-137.53
64904;BMP280;51401;48.882;12.598;2024-03-02T00:48:15;64159.94;;;-137.53
64904;BMP280;51401;48.882;12.598;2024-03-02T00:50:41;64159.94;;;-137.53
64904;BMP280;51401;48.882;12.598;2024-03-02T00:53:10;64159.94;;;-137.53
64904;BMP280;51401;48.882;12.598;2024-03-02T00:55:36;64155.97;;;-137.53
64904;BMP280;51401;48.882;12.598;2024-03-02T00:58:02;64159.94;;;-137.53
64904;BMP280;51401;48.882;12.598;2024-03-02T01:00:27;64159.94;;;-137.53
64904;BMP280;51401;48.882;12.598;2024-03-02T01:02:53;64155.97;;;-137.53
64904;BMP280;51401;48.882;12.598;2024-03-02T01:05:18;64157.97;;;-137.53
64904;BMP280;51401;48.882;12.598;2024-03-02T01:07:43;64157.97;;;-137.53
64904;BMP280;51401;48.882;12.598;2024-03-02T01:10:09;64157.97;;;-137.53
64904;BMP280;51401;48.882;12.598;2024-03-02T01:12:35;64155.97;;;-137.53
64904;BMP280;51401;48.882;12.598;2024-03-02T01:15:00;64155.97;;;-137.53
64904;BMP280;51401;48.882;12.598;2024-03-02T01:17:25;64159.94;;;-137.53
64904;BMP280;51401;48.882;12.598;2024-03-02T01:19:50;64157.97;;;-137.53
64904;BMP280;51401;48.882;12.598;2024-03-02T01:22:16;64157.97;;;-137.53
64904;BMP280;51401;48.882;12.598;2024-03-02T01:24:42;64155.97;;;-137.53
64904;BMP280;51401;48.882;12.598;2024-03-02T01:27:07;64159.94;;;-137.53
64904;BMP280;51401;48.882;12.598;2024-03-02T01:29:32;64157.97;;;-137.53
64904;BMP280;51401;48.882;12.598;2024-03-02T01:31:58;64159.94;;;-137.53
64904;BMP280;51401;48.882;12.598;2024-03-02T01:34:23;64155.97;;;-137.53
64904;BMP280;51401;48.882;12.598;2024-03-02T01:36:48;64159.94;;;-137.53
64904;BMP280;51401;48.882;12.598;2024-03-02T01:39:13;64159.94;;;-137.53
64904;BMP280;51401;48.882;12.598;2024-03-02T01:41:39;64155.97;;;-137.53
64904;BMP280;51401;48.882;12.598;2024-03-02T01:44:04;64157.97;;;-137.53
64904;BMP280;51401;48.882;12.598;2024-03-02T01:46:29;64159.94;;;-137.53
64904;BMP280;51401;48.882;12.598;2024-03-02T01:48:55;64157.97;;;-137.53
64904;BMP280;51401;48.882;12.598;2024-03-02T01:51:20;64157.97;;;-137.53
64904;BMP280;51401;48.882;12.598;2024-03-02T01:53:46;64155.97;;;-137.53
64904;BMP280;51401;48.882;12.598;2024-03-02T01:56:11;64159.94;;;-137.53
64904;BMP280;51401;48.882;12.598;2024-03-02T01:58:37;64159.94;;;-137.53
64904;BMP280;51401;48.882;12.598;2024-03-02T02:01:02;64155.97;;;-137.53
64904;BMP280;51401;48.882;12.598;2024-03-02T02:03:27;64155.97;;;-137.53
64904;BMP280;51401;48.882;12.598;2024-03-02T02:05:53;64155.97;;;-137.53
64904;BMP280;51401;48.882;12.598;2024-03-02T02:08:18;64157.97;;;-137.53
64904;BMP280;51401;48.882;12.598;2024-03-02T02:10:43;64159.94;;;-137.53
64904;BMP280;51401;48.882;12.598;2024-03-02T02:13:08;64155.97;;;-137.53
64904;BMP280;51401;48.882;12.598;2024-03-02T02:15:34;64157.97;;;-137.53
64904;BMP280;51401;48.882;12.598;2024-03-02T02:18:01;64159.94;;;-137.53
64904;BMP280;51401;48.882;12.598;2024-03-02T02:20:26;64159.94;;;-137.53
64904;BMP280;51401;48.882;12.598;2024-03-02T02:22:54;64161.94;;;-137.53
64904;BMP280;51401;48.882;12.598;2024-03-02T02:25:20;64155.97;;;-137.53
64904;BMP280;51401;48.882;12.598;2024-03-02T02:27:45;64157.97;;;-137.53
64904;BMP280;51401;48.882;12.598;2024-03-02T02:30:11;64159.94;;;-137.53
64904;BMP280;51401;48.882;12.598;2024-03-02T02:32:37;64159.94;;;-137.53
64904;BMP280;51401;48.882;12.598;2024-03-02T02:35:02;64157.97;;;-137.53
64904;BMP280;51401;48.882;12.598;2024-03-02T02:37:28;64159.94;;;-137.53
64904;BMP280;51401;48.882;12.598;2024-03-02T02:39:53;64154.00;;;-137.53
64904;BMP280;51401;48.882;12.598;2024-03-02T02:42:19;64159.94;;;-137.53
64904;BMP280;51401;48.882;12.598;2024-03-02T02:44:44;64157.97;;;-137.53
64904;BMP280;51401;48.882;12.598;2024-03-02T02:47:09;64159.94;;;-137.53
64904;BMP280;51401;48.882;12.598;2024-03-02T02:49:34;64157.97;;;-137.53
64904;BMP280;51401;48.882;12.598;2024-03-02T02:52:00;64157.97;;;-137.53
64904;BMP280;51401;48.882;12.598;2024-03-02T02:54:25;64155.97;;;-137.53
64904;BMP280;51401;48.882;12.598;2024-03-02T02:56:50;64157.97;;;-137.53
64904;BMP280;51401;48.882;12.598;2024-03-02T02:59:15;64155.97;;;-137.53
64904;BMP280;51401;48.882;12.598;2024-03-02T03:01:41;64155.97;;;-137.53
64904;BMP280;51401;48.882;12.598;2024-03-02T03:04:06;64159.94;;;-137.53
64904;BMP280;51401;48.882;12.598;2024-03-02T03:06:31;64157.97;;;-137.53
64904;BMP280;51401;48.882;12.598;2024-03-02T03:08:57;64159.94;;;-137.53
64904;BMP280;51401;48.882;12.598;2024-03-02T03:11:22;64157.97;;;-137.53
64904;BMP280;51401;48.882;12.598;2024-03-02T03:13:50;64159.94;;;-137.53
64904;BMP280;51401;48.882;12.598;2024-03-02T03:16:15;64159.94;;;-137.53
64904;BMP280;51401;48.882;12.598;2024-03-02T03:18:40;64159.94;;;-137.53
64904;BMP280;51401;48.882;12.598;2024-03-02T03:21:05;64159.94;;;-137.53
64904;BMP280;51401;48.882;12.598;2024-03-02T03:23:30;64157.97;;;-137.53
64904;BMP280;51401;48.882;12.598;2024-03-02T03:25:56;64157.97;;;-137.53
64904;BMP280;51401;48.882;12.598;2024-03-02T03:28:21;64157.97;;;-137.53
64904;BMP280;51401;48.882;12.598;2024-03-02T03:30:46;64155.97;;;-137.53
64904;BMP280;51401;48.882;12.598;2024-03-02T03:33:11;64155.97;;;-137.53
64904;BMP280;51401;48.882;12.598;2024-03-02T03:35:37;64155.97;;;-137.53
64904;BMP280;51401;48.882;12.598;2024-03-02T03:38:02;64157.97;;;-137.53
64904;BMP280;51401;48.882;12.598;2024-03-02T03:40:28;64159.94;;;-137.53
64904;BMP280;51401;48.882;12.598;2024-03-02T03:42:53;64157.97;;;-137.53
64904;BMP280;51401;48.882;12.598;2024-03-02T03:45:19;64157.97;;;-137.53
64904;BMP280;51401;48.882;12.598;2024-03-02T03:47:45;64159.94;;;-137.53
64904;BMP280;51401;48.882;12.598;2024-03-02T03:50:10;64159.94;;;-137.53
64904;BMP280;51401;48.882;12.598;2024-03-02T03:52:35;64161.94;;;-137.53
64904;BMP280;51401;48.882;12.598;2024-03-02T03:55:01;64157.97;;;-137.53
64904;BMP280;51401;48.882;12.598;2024-03-02T03:57:27;64155.97;;;-137.53
64904;BMP280;51401;48.882;12.598;2024-03-02T03:59:52;64157.97;;;-137.53
64904;BMP280;51401;48.882;12.598;2024-03-02T04:02:18;64159.94;;;-137.53
64904;BMP280;51401;48.882;12.598;2024-03-02T04:04:43;64159.94;;;-137.53
64904;BMP280;51401;48.882;12.598;2024-03-02T04:07:08;64159.94;;;-137.53
64904;BMP280;51401;48.882;12.598;2024-03-02T04:09:34;64159.94;;;-137.53
64904;BMP280;51401;48.882;12.598;2024-03-02T04:11:59;64159.94;;;-137.53
64904;BMP280;51401;48.882;12.598;2024-03-02T04:14:24;64159.94;;;-137.53
64904;BMP280;51401;48.882;12.598;2024-03-02T04:16:50;64159.94;;;-137.53
64904;BMP280;51401;48.882;12.598;2024-03-02T04:19:15;64157.97;;;-137.53
64904;BMP280;51401;48.882;12.598;2024-03-02T04:21:40;64157.97;;;-137.53
64904;BMP280;51401;48.882;12.598;2024-03-02T04:24:05;64159.94;;;-137.53
64904;BMP280;51401;48.882;12.598;2024-03-02T04:26:30;64155.97;;;-137.53
64904;BMP280;51401;48.882;12.598;2024-03-02T04:28:56;64155.97;;;-137.53
64904;BMP280;51401;48.882;12.598;2024-03-02T04:31:21;64155.97;;;-137.53
64904;BMP280;51401;48.882;12.598;2024-03-02T04:33:46;64159.94;;;-137.53
64904;BMP280;51401;48.882;12.598;2024-03-02T04:36:12;64159.94;;;-137.53
64904;BMP280;51401;48.882;12.598;2024-03-02T04:38:40;64159.94;;;-137.53
64904;BMP280;51401;48.882;12.598;2024-03-02T04:41:06;64159.94;;;-137.53
64904;BMP280;51401;48.882;12.598;2024-03-02T04:43:32;64159.94;;;-137.53
64904;BMP280;51401;48.882;12.598;2024-03-02T04:46:00;64155.97;;;-137.53
64904;BMP280;51401;48.882;12.598;2024-03-02T04:48:26;64159.94;;;-137.53
64904;BMP280;51401;48.882;12.598;2024-03-02T04:50:51;64159.94;;;-137.53
64904;BMP280;51401;48.882;12.598;2024-03-02T04:53:17;64159.94;;;-137.53
64904;BMP280;51401;48.882;12.598;2024-03-02T04:55:42;64159.94;;;-137.53
64904;BMP280;51401;48.882;12.598;2024-03-02T04:58:08;64155.97;;;-137.53
64904;BMP280;51401;48.882;12.598;2024-03-02T05:00:34;64157.97;;;-137.53
64904;BMP280;51401;48.882;12.598;2024-03-02T05:02:59;64157.97;;;-137.53
64904;BMP280;51401;48.882;12.598;2024-03-02T05:05:24;64157.97;;;-137.53
64904;BMP280;51401;48.882;12.598;2024-03-02T05:07:50;64159.94;;;-137.53
64904;BMP280;51401;48.882;12.598;2024-03-02T05:10:15;64157.97;;;-137.53
64904;BMP280;51401;48.882;12.598;2024-03-02T05:12:41;64157.97;;;-137.53
64904;BMP280;51401;48.882;12.598;2024-03-02T05:15:10;64159.94;;;-137.53
64904;BMP280;51401;48.882;12.598;2024-03-02T05:17:36;64157.97;;;-137.53
64904;BMP280;51401;48.882;12.598;2024-03-02T05:20:03;64155.97;;;-137.53
64904;BMP280;51401;48.882;12.598;2024-03-02T05:22:29;64155.97;;;-137.53
64904;BMP280;51401;48.882;12.598;2024-03-02T05:24:54;64159.94;;;-137.53
64904;BMP280;51401;48.882;12.598;2024-03-02T05:27:19;64155.97;;;-137.53
64904;BMP280;51401;48.882;12.598;2024-03-02T05:29:44;64159.94;;;-137.53
64904;BMP280;51401;48.882;12.598;2024-03-02T05:32:10;64159.94;;;-137.53
64904;BMP280;51401;48.882;12.598;2024-03-02T05:34:35;64155.97;;;-137.53
64904;BMP280;51401;48.882;12.598;2024-03-02T05:37:01;64159.94;;;-137.53
64904;BMP280;51401;48.882;12.598;2024-03-02T05:39:26;64155.97;;;-137.53
64904;BMP280;51401;48.882;12.598;2024-03-02T05:41:51;64154.00;;;-137.53
64904;BMP280;51401;48.882;12.598;2024-03-02T05:44:17;64157.97;;;-137.53
64904;BMP280;51401;48.882;12.598;2024-03-02T05:46:43;64155.97;;;-137.53
64904;BMP280;51401;48.882;12.598;2024-03-02T05:49:08;64159.94;;;-137.53
64904;BMP280;51401;48.882;12.598;2024-03-02T05:51:34;64155.97;;;-137.53
64904;BMP280;51401;48.882;12.598;2024-03-02T05:54:00;64157.97;;;-137.53
64904;BMP280;51401;48.882;12.598;2024-03-02T05:56:28;64157.97;;;-137.53
64904;BMP280;51401;48.882;12.598;2024-03-02T05:58:53;64159.94;;;-137.53
64904;BMP280;51401;48.882;12.598;2024-03-02T06:01:27;64155.97;;;-137.53
64904;BMP280;51401;48.882;12.598;2024-03-02T06:03:56;64159.94;;;-137.53
64904;BMP280;51401;48.882;12.598;2024-03-02T06:06:22;64159.94;;;-137.53
64904;BMP280;51401;48.882;12.598;2024-03-02T06:08:48;64157.97;;;-137.53
64904;BMP280;51401;48.882;12.598;2024-03-02T06:11:13;64155.97;;;-137.53
64904;BMP280;51401;48.882;12.598;2024-03-02T06:13:38;64159.94;;;-137.53
64904;BMP280;51401;48.882;12.598;2024-03-02T06:16:04;64159.94;;;-137.53
64904;BMP280;51401;48.882;12.598;2024-03-02T06:18:29;64155.97;;;-137.53
64904;BMP280;51401;48.882;12.598;2024-03-02T06:20:54;64157.97;;;-137.53
64904;BMP280;51401;48.882;12.598;2024-03-02T06:23:20;64159.94;;;-137.53
64904;BMP280;51401;48.882;12.598;2024-03-02T06:25:45;64159.94;;;-137.53
64904;BMP280;51401;48.882;12.598;2024-03-02T06:28:10;64155.97;;;-137.53
64904;BMP280;51401;48.882;12.598;2024-03-02T06:30:36;64155.97;;;-137.53
64904;BMP280;51401;48.882;12.598;2024-03-02T06:33:01;64159.94;;;-137.53
64904;BMP280;51401;48.882;12.598;2024-03-02T06:35:28;64159.94;;;-137.53
64904;BMP280;51401;48.882;12.598;2024-03-02T06:37:54;64159.94;;;-137.53
64904;BMP280;51401;48.882;12.598;2024-03-02T06:40:19;64157.97;;;-137.53
64904;BMP280;51401;48.882;12.598;2024-03-02T06:42:44;64159.94;;;-137.53
64904;BMP280;51401;48.882;12.598;2024-03-02T06:45:09;64159.94;;;-137.53
64904;BMP280;51401;48.882;12.598;2024-03-02T06:47:35;64159.94;;;-137.53
64904;BMP280;51401;48.882;12.598;2024-03-02T06:50:00;64159.94;;;-137.53
64904;BMP280;51401;48.882;12.598;2024-03-02T06:52:25;64159.94;;;-137.53
64904;BMP280;51401;48.882;12.598;2024-03-02T06:54:50;64157.97;;;-137.53
64904;BMP280;51401;48.882;12.598;2024-03-02T06:57:16;64159.94;;;-137.53
64904;BMP280;51401;48.882;12.598;2024-03-02T06:59:42;64159.94;;;-137.53
64904;BMP280;51401;48.882;12.598;2024-03-02T07:02:07;64159.94;;;-137.53
64904;BMP280;51401;48.882;12.598;2024-03-02T07:04:34;64157.97;;;-137.53
64904;BMP280;51401;48.882;12.598;2024-03-02T07:06:59;64155.97;;;-137.53
64904;BMP280;51401;48.882;12.598;2024-03-02T07:09:24;64159.94;;;-137.53
64904;BMP280;51401;48.882;12.598;2024-03-02T07:11:49;64157.97;;;-137.53
64904;BMP280;51401;48.882;12.598;2024-03-02T07:14:15;64159.94;;;-137.53
64904;BMP280;51401;48.882;12.598;2024-03-02T07:16:40;64155.97;;;-137.53
64904;BMP280;51401;48.882;12.598;2024-03-02T07:19:06;64155.97;;;-137.53
64904;BMP280;51401;48.882;12.598;2024-03-02T07:21:31;64159.94;;;-137.53
64904;BMP280;51401;48.882;12.598;2024-03-02T07:23:57;64157.97;;;-137.53
64904;BMP280;51401;48.882;12.598;2024-03-02T07:26:23;64157.97;;;-137.53
64904;BMP280;51401;48.882;12.598;2024-03-02T07:28:49;64157.97;;;-137.53
64904;BMP280;51401;48.882;12.598;2024-03-02T07:31:14;64155.97;;;-137.53
64904;BMP280;51401;48.882;12.598;2024-03-02T07:33:40;64154.00;;;-137.53
64904;BMP280;51401;48.882;12.598;2024-03-02T07:36:07;64155.97;;;-137.53
64904;BMP280;51401;48.882;12.598;2024-03-02T07:38:32;64155.97;;;-137.53
64904;BMP280;51401;48.882;12.598;2024-03-02T07:41:00;64155.97;;;-137.53
64904;BMP280;51401;48.882;12.598;2024-03-02T07:43:26;64155.97;;;-137.53
64904;BMP280;51401;48.882;12.598;2024-03-02T07:45:51;64157.97;;;-137.53
64904;BMP280;51401;48.882;12.598;2024-03-02T07:48:17;64157.97;;;-137.53
64904;BMP280;51401;48.882;12.598;2024-03-02T07:50:42;64159.94;;;-137.53
64904;BMP280;51401;48.882;12.598;2024-03-02T07:53:08;64159.94;;;-137.53
64904;BMP280;51401;48.882;12.598;2024-03-02T07:55:34;64155.97;;;-137.53
64904;BMP280;51401;48.882;12.598;2024-03-02T07:58:00;64157.97;;;-137.53
64904;BMP280;51401;48.882;12.598;2024-03-02T08:00:26;64155.97;;;-137.53
64904;BMP280;51401;48.882;12.598;2024-03-02T08:02:52;64154.00;;;-137.53
64904;BMP280;51401;48.882;12.598;2024-03-02T08:05:17;64155.97;;;-137.53
64904;BMP280;51401;48.882;12.598;2024-03-02T08:07:46;64159.94;;;-137.53
64904;BMP280;51401;48.882;12.598;2024-03-02T08:10:12;64155.97;;;-137.53
64904;BMP280;51401;48.882;12.598;2024-03-02T08:12:37;64152.00;;;-137.53
64904;BMP280;51401;48.882;12.598;2024-03-02T08:15:03;64155.97;;;-137.53
64904;BMP280;51401;48.882;12.598;2024-03-02T08:17:29;64157.97;;;-137.53
64904;BMP280;51401;48.882;12.598;2024-03-02T08:19:55;64155.97;;;-137.53
64904;BMP280;51401;48.882;12.598;2024-03-02T08:22:20;64152.00;;;-137.53
64904;BMP280;51401;48.882;12.598;2024-03-02T08:24:46;64154.00;;;-137.53
64904;BMP280;51401;48.882;12.598;2024-03-02T08:27:11;64154.00;;;-137.53
64904;BMP280;51401;48.882;12.598;2024-03-02T08:29:37;64155.97;;;-137.53
64904;BMP280;51401;48.882;12.598;2024-03-02T08:32:02;64159.94;;;-137.53
64904;BMP280;51401;48.882;12.598;2024-03-02T08:34:28;64154.00;;;-137.53
64904;BMP280;51401;48.882;12.598;2024-03-02T08:36:53;64154.00;;;-137.53
64904;BMP280;51401;48.882;12.598;2024-03-02T08:39:18;64157.97;;;-137.53
64904;BMP280;51401;48.882;12.598;2024-03-02T08:41:45;64152.00;;;-137.53
64904;BMP280;51401;48.882;12.598;2024-03-02T08:44:11;64154.00;;;-137.53
64904;BMP280;51401;48.882;12.598;2024-03-02T08:46:37;64152.00;;;-137.53
64904;BMP280;51401;48.882;12.598;2024-03-02T08:49:02;64152.00;;;-137.53
64904;BMP280;51401;48.882;12.598;2024-03-02T08:51:28;64155.97;;;-137.53
64904;BMP280;51401;48.882;12.598;2024-03-02T08:53:53;64152.00;;;-137.53
64904;BMP280;51401;48.882;12.598;2024-03-02T08:56:18;64154.00;;;-137.53
64904;BMP280;51401;48.882;12.598;2024-03-02T08:58:45;64152.00;;;-137.53
64904;BMP280;51401;48.882;12.598;2024-03-02T09:01:11;64150.03;;;-137.53
64904;BMP280;51401;48.882;12.598;2024-03-02T09:03:36;64152.00;;;-137.53
64904;BMP280;51401;48.882;12.598;2024-03-02T09:06:02;64152.00;;;-137.53
64904;BMP280;51401;48.882;12.598;2024-03-02T09:08:28;64152.00;;;-137.53
64904;BMP280;51401;48.882;12.598;2024-03-02T09:10:53;64152.00;;;-137.53
64904;BMP280;51401;48.882;12.598;2024-03-02T09:13:19;64154.00;;;-137.53
64904;BMP280;51401;48.882;12.598;2024-03-02T09:15:44;64152.00;;;-137.53
64904;BMP280;51401;48.882;12.598;2024-03-02T09:18:10;64150.03;;;-137.53
64904;BMP280;51401;48.882;12.598;2024-03-02T09:20:35;64154.00;;;-137.53
64904;BMP280;51401;48.882;12.598;2024-03-02T09:23:01;64152.00;;;-137.53
64904;BMP280;51401;48.882;12.598;2024-03-02T09:25:26;64154.00;;;-137.53
64904;BMP280;51401;48.882;12.598;2024-03-02T09:27:51;64155.97;;;-137.53
64904;BMP280;51401;48.882;12.598;2024-03-02T09:30:17;64148.03;;;-137.53
64904;BMP280;51401;48.882;12.598;2024-03-02T09:32:42;64150.03;;;-137.53
64904;BMP280;51401;48.882;12.598;2024-03-02T09:35:07;64150.03;;;-137.53
64904;BMP280;51401;48.882;12.598;2024-03-02T09:37:34;64150.03;;;-137.53
64904;BMP280;51401;48.882;12.598;2024-03-02T09:39:59;64146.03;;;-137.53
64904;BMP280;51401;48.882;12.598;2024-03-02T09:42:25;64148.03;;;-137.53
64904;BMP280;51401;48.882;12.598;2024-03-02T09:44:51;64144.06;;;-137.53
64904;BMP280;51401;48.882;12.598;2024-03-02T09:47:17;64146.03;;;-137.53
64904;BMP280;51401;48.882;12.598;2024-03-02T09:49:42;64146.03;;;-137.53
64904;BMP280;51401;48.882;12.598;2024-03-02T09:52:10;64146.03;;;-137.53
64904;BMP280;51401;48.882;12.598;2024-03-02T09:54:35;64142.06;;;-137.53
64904;BMP280;51401;48.882;12.598;2024-03-02T09:57:01;64144.06;;;-137.53
64904;BMP280;51401;48.882;12.598;2024-03-02T09:59:27;64144.06;;;-137.53
64904;BMP280;51401;48.882;12.598;2024-03-02T10:02:01;64146.03;;;-137.53
64904;BMP280;51401;48.882;12.598;2024-03-02T10:04:27;64146.03;;;-137.53
64904;BMP280;51401;48.882;12.598;2024-03-02T10:07:09;64148.03;;;-137.53
64904;BMP280;51401;48.882;12.598;2024-03-02T10:09:35;64146.03;;;-137.53
64904;BMP280;51401;48.882;12.598;2024-03-02T10:12:04;64146.03;;;-137.53
64904;BMP280;51401;48.882;12.598;2024-03-02T10:14:30;64142.06;;;-137.53
64904;BMP280;51401;48.882;12.598;2024-03-02T10:17:02;64146.03;;;-137.53
64904;BMP280;51401;48.882;12.598;2024-03-02T10:19:28;64146.03;;;-137.53
64904;BMP280;51401;48.882;12.598;2024-03-02T10:21:58;64146.03;;;-137.53
64904;BMP280;51401;48.882;12.598;2024-03-02T10:24:24;64146.03;;;-137.53
64904;BMP280;51401;48.882;12.598;2024-03-02T10:26:50;64148.03;;;-137.53
64904;BMP280;51401;48.882;12.598;2024-03-02T10:29:16;64144.06;;;-137.53
64904;BMP280;51401;48.882;12.598;2024-03-02T10:31:43;64140.09;;;-137.53
64904;BMP280;51401;48.882;12.598;2024-03-02T10:34:10;64144.06;;;-137.53
64904;BMP280;51401;48.882;12.598;2024-03-02T10:36:36;64144.06;;;-137.53
64904;BMP280;51401;48.882;12.598;2024-03-02T10:39:06;64144.06;;;-137.53
64904;BMP280;51401;48.882;12.598;2024-03-02T10:41:34;64142.06;;;-137.53
64904;BMP280;51401;48.882;12.598;2024-03-02T10:44:04;64138.09;;;-137.53
64904;BMP280;51401;48.882;12.598;2024-03-02T10:46:31;64140.09;;;-137.53
64904;BMP280;51401;48.882;12.598;2024-03-02T10:48:57;64140.09;;;-137.53
64904;BMP280;51401;48.882;12.598;2024-03-02T10:51:28;64136.13;;;-137.53
64904;BMP280;51401;48.882;12.598;2024-03-02T10:53:57;64138.09;;;-137.53
64904;BMP280;51401;48.882;12.598;2024-03-02T10:56:45;64140.09;;;-137.53
64904;BMP280;51401;48.882;12.598;2024-03-02T10:59:28;64140.09;;;-137.53
64904;BMP280;51401;48.882;12.598;2024-03-02T11:01:59;64140.09;;;-137.53
64904;BMP280;51401;48.882;12.598;2024-03-02T11:04:26;64142.06;;;-137.53
64904;BMP280;51401;48.882;12.598;2024-03-02T11:06:52;64142.06;;;-137.53
64904;BMP280;51401;48.882;12.598;2024-03-02T11:09:22;64146.03;;;-137.53
64904;BMP280;51401;48.882;12.598;2024-03-02T11:11:56;64142.06;;;-137.53
64904;BMP280;51401;48.882;12.598;2024-03-02T11:14:24;64142.06;;;-137.53
64904;BMP280;51401;48.882;12.598;2024-03-02T11:16:50;64144.06;;;-137.53
64904;BMP280;51401;48.882;12.598;2024-03-02T11:19:16;64146.03;;;-137.53
64904;BMP280;51401;48.882;12.598;2024-03-02T11:21:42;64144.06;;;-137.53
64904;BMP280;51401;48.882;12.598;2024-03-02T11:27:07;64138.09;;;-137.53
64904;BMP280;51401;48.882;12.598;2024-03-02T11:32:02;64140.09;;;-137.53
64904;BMP280;51401;48.882;12.598;2024-03-02T11:34:29;64144.06;;;-137.53
64904;BMP280;51401;48.882;12.598;2024-03-02T11:36:56;64144.06;;;-137.53
64904;BMP280;51401;48.882;12.598;2024-03-02T11:39:22;64136.13;;;-137.53
64904;BMP280;51401;48.882;12.598;2024-03-02T11:41:47;64138.09;;;-137.53
64904;BMP280;51401;48.882;12.598;2024-03-02T11:44:14;64140.09;;;-137.53
64904;BMP280;51401;48.882;12.598;2024-03-02T11:46:40;64140.09;;;-137.53
64904;BMP280;51401;48.882;12.598;2024-03-02T11:49:06;64136.13;;;-137.53
64904;BMP280;51401;48.882;12.598;2024-03-02T11:51:33;64136.13;;;-137.53
64904;BMP280;51401;48.882;12.598;2024-03-02T11:54:00;64136.13;;;-137.53
64904;BMP280;51401;48.882;12.598;2024-03-02T11:56:26;64136.13;;;-137.53
64904;BMP280;51401;48.882;12.598;2024-03-02T11:58:53;64134.13;;;-137.53
64904;BMP280;51401;48.882;12.598;2024-03-02T12:01:19;64134.13;;;-137.53
64904;BMP280;51401;48.882;12.598;2024-03-02T12:03:45;64138.09;;;-137.53
64904;BMP280;51401;48.882;12.598;2024-03-02T12:06:11;64138.09;;;-137.53
64904;BMP280;51401;48.882;12.598;2024-03-02T12:08:38;64138.09;;;-137.53
64904;BMP280;51401;48.882;12.598;2024-03-02T12:11:04;64136.13;;;-137.53
64904;BMP280;51401;48.882;12.598;2024-03-02T12:13:31;64136.13;;;-137.53
64904;BMP280;51401;48.882;12.598;2024-03-02T12:15:57;64136.13;;;-137.53
64904;BMP280;51401;48.882;12.598;2024-03-02T12:18:22;64134.13;;;-137.53
64904;BMP280;51401;48.882;12.598;2024-03-02T12:20:49;64138.09;;;-137.53
64904;BMP280;51401;48.882;12.598;2024-03-02T12:23:15;64134.13;;;-137.53
64904;BMP280;51401;48.882;12.598;2024-03-02T12:25:40;64136.13;;;-137.53
64904;BMP280;51401;48.882;12.598;2024-03-02T12:28:06;64136.13;;;-137.53
64904;BMP280;51401;48.882;12.598;2024-03-02T12:30:35;64136.13;;;-137.53
64904;BMP280;51401;48.882;12.598;2024-03-02T12:33:00;64140.09;;;-137.53
64904;BMP280;51401;48.882;12.598;2024-03-02T12:35:25;64140.09;;;-137.53
64904;BMP280;51401;48.882;12.598;2024-03-02T12:37:52;64138.09;;;-137.53
64904;BMP280;51401;48.882;12.598;2024-03-02T12:40:18;64138.09;;;-137.53
64904;BMP280;51401;48.882;12.598;2024-03-02T12:42:45;64138.09;;;-137.53
64904;BMP280;51401;48.882;12.598;2024-03-02T12:45:11;64136.13;;;-137.53
64904;BMP280;51401;48.882;12.598;2024-03-02T12:47:37;64136.13;;;-137.53
64904;BMP280;51401;48.882;12.598;2024-03-02T12:50:06;64136.13;;;-137.53
64904;BMP280;51401;48.882;12.598;2024-03-02T12:52:31;64134.13;;;-137.53
64904;BMP280;51401;48.882;12.598;2024-03-02T12:54:58;64134.13;;;-137.53
64904;BMP280;51401;48.882;12.598;2024-03-02T12:57:31;64136.13;;;-137.53
64904;BMP280;51401;48.882;12.598;2024-03-02T13:00:02;64134.13;;;-137.53
64904;BMP280;51401;48.882;12.598;2024-03-02T13:02:34;64136.13;;;-137.53
64904;BMP280;51401;48.882;12.598;2024-03-02T13:04:59;64132.16;;;-137.53
64904;BMP280;51401;48.882;12.598;2024-03-02T13:07:25;64132.16;;;-137.53
64904;BMP280;51401;48.882;12.598;2024-03-02T13:09:51;64132.16;;;-137.53
64904;BMP280;51401;48.882;12.598;2024-03-02T13:12:17;64134.13;;;-137.53
64904;BMP280;51401;48.882;12.598;2024-03-02T13:14:43;64136.13;;;-137.53
64904;BMP280;51401;48.882;12.598;2024-03-02T13:17:09;64132.16;;;-137.53
64904;BMP280;51401;48.882;12.598;2024-03-02T13:19:34;64136.13;;;-137.53
64904;BMP280;51401;48.882;12.598;2024-03-02T13:22:00;64136.13;;;-137.53
64904;BMP280;51401;48.882;12.598;2024-03-02T13:24:27;64132.16;;;-137.53
64904;BMP280;51401;48.882;12.598;2024-03-02T13:26:54;64134.13;;;-137.53
64904;BMP280;51401;48.882;12.598;2024-03-02T13:29:22;64130.16;;;-137.53
64904;BMP280;51401;48.882;12.598;2024-03-02T13:31:47;64134.13;;;-137.53
64904;BMP280;51401;48.882;12.598;2024-03-02T13:34:13;64132.16;;;-137.53
64904;BMP280;51401;48.882;12.598;2024-03-02T13:36:38;64132.16;;;-137.53